Time;durP1;ratioP1;P1;durP2;ratioP2;P2;SDS_P1;SDS_P2;PMS_P1;PMS_P2;Temp;Humidity;BMP_temperature;BMP_pressure;BME280_temperature;BME280_humidity;BME280_pressure;Samples;Min_cycle;Max_cycle;Signal;HPM_P1;HPM_P2
2022/09/27 00:02:16;;;;;;;;;;;9.90;99.90;;;;;;5079564;28;19925;-69
2022/09/27 00:04:43;;;;;;;;;;;9.90;99.90;;;;;;5080672;28;19924;-69
2022/09/27 00:07:10;;;;;;;;;;;9.80;99.90;;;;;;5075291;28;19931;-70
2022/09/27 00:09:37;;;;;;;;;;;9.80;99.90;;;;;;5081111;28;20374;-69
2022/09/27 00:12:04;;;;;;;;;;;9.80;99.90;;;;;;5076639;28;19964;-69
2022/09/27 00:14:31;;;;;;;;;;;9.80;99.90;;;;;;5080539;28;20348;-70
2022/09/27 00:16:59;;;;;;;;;;;9.70;99.90;;;;;;5073942;28;20011;-70
2022/09/27 00:19:25;;;;;;;;;;;9.70;99.90;;;;;;5083442;28;20006;-69
2022/09/27 00:21:52;;;;;;;;;;;9.70;99.90;;;;;;5076874;28;20015;-69
2022/09/27 00:24:20;;;;;;;;;;;9.70;99.90;;;;;;5075984;28;20011;-70
2022/09/27 00:26:47;;;;;;;;;;;9.70;99.90;;;;;;5079490;28;19932;-69
2022/09/27 00:29:14;;;;;;;;;;;9.70;99.90;;;;;;5071722;28;20025;-70
2022/09/27 00:31:41;;;;;;;;;;;9.70;99.90;;;;;;5080259;28;19935;-70
2022/09/27 00:34:11;;;;;;;;;;;9.70;99.90;;;;;;5078969;28;20276;-70
2022/09/27 00:36:38;;;;;;;;;;;9.80;99.90;;;;;;5080744;28;19924;-70
2022/09/27 00:39:05;;;;;;;;;;;9.80;99.90;;;;;;5078941;28;20007;-72
2022/09/27 00:41:33;;;;;;;;;;;9.80;99.90;;;;;;5056560;28;19968;-70
2022/09/27 00:44:00;;;;;;;;;;;9.80;99.90;;;;;;5087822;28;20015;-70
2022/09/27 00:46:29;;;;;;;;;;;9.80;99.90;;;;;;5077627;28;20301;-70
2022/09/27 00:49:01;;;;;;;;;;;9.90;99.90;;;;;;5091746;28;20019;-69
2022/09/27 00:51:29;;;;;;;;;;;9.90;99.90;;;;;;5084674;28;20011;-69
2022/09/27 00:53:58;;;;;;;;;;;9.90;99.90;;;;;;5080714;28;20015;-68
2022/09/27 00:56:26;;;;;;;;;;;9.90;99.90;;;;;;5078697;28;20382;-68
2022/09/27 00:58:54;;;;;;;;;;;9.90;99.90;;;;;;5087669;28;20379;-69
2022/09/27 01:01:21;;;;;;;;;;;9.90;99.90;;;;;;5075232;28;20386;-69
2022/09/27 01:03:51;;;;;;;;;;;9.90;99.90;;;;;;5080306;28;20015;-69
2022/09/27 01:06:19;;;;;;;;;;;9.90;99.90;;;;;;5087846;28;19951;-70
2022/09/27 01:08:47;;;;;;;;;;;9.90;99.90;;;;;;5078287;28;19924;-70
2022/09/27 01:11:17;;;;;;;;;;;9.90;99.90;;;;;;5080367;28;19930;-70
2022/09/27 01:13:50;;;;;;;;;;;9.90;99.90;;;;;;5080751;28;20004;-70
2022/09/27 01:16:21;;;;;;;;;;;9.80;99.90;;;;;;5080981;28;20063;-70
2022/09/27 01:18:54;;;;;;;;;;;9.80;99.90;;;;;;5090835;28;19924;-69
2022/09/27 01:21:30;;;;;;;;;;;9.80;99.90;;;;;;5080738;28;20018;-69
2022/09/27 01:24:22;;;;;;;;;;;9.80;99.90;;;;;;5074808;28;19987;-70
2022/09/27 01:27:12;;;;;;;;;;;9.80;99.90;;;;;;5078965;28;20011;-69
2022/09/27 01:29:45;;;;;;;;;;;9.80;99.90;;;;;;5083200;28;20038;-69
2022/09/27 01:32:17;;;;;;;;;;;9.80;99.90;;;;;;5083756;28;20023;-69
2022/09/27 01:34:46;;;;;;;;;;;9.80;99.90;;;;;;5078213;28;20383;-70
2022/09/27 01:37:18;;;;;;;;;;;9.80;99.90;;;;;;5084837;28;19924;-70
2022/09/27 01:39:49;;;;;;;;;;;9.70;99.90;;;;;;5075300;28;19924;-69
2022/09/27 01:42:20;;;;;;;;;;;9.70;99.90;;;;;;5076922;28;19932;-68
2022/09/27 01:44:49;;;;;;;;;;;9.70;99.90;;;;;;5079709;28;19924;-69
2022/09/27 01:47:19;;;;;;;;;;;9.70;99.90;;;;;;5084031;28;19924;-70
2022/09/27 01:49:48;;;;;;;;;;;9.70;99.90;;;;;;5075729;28;19932;-69
2022/09/27 01:52:17;;;;;;;;;;;9.60;99.90;;;;;;5079838;28;19931;-70
2022/09/27 01:54:46;;;;;;;;;;;9.60;99.90;;;;;;5086943;28;19931;-70
2022/09/27 01:57:17;;;;;;;;;;;9.70;99.90;;;;;;5087147;28;19928;-70
2022/09/27 01:59:46;;;;;;;;;;;9.60;99.90;;;;;;5078905;28;19952;-70
2022/09/27 02:02:14;;;;;;;;;;;9.60;99.90;;;;;;5088676;28;20022;-70
2022/09/27 02:04:43;;;;;;;;;;;9.60;99.90;;;;;;5076234;28;19931;-70
2022/09/27 02:07:11;;;;;;;;;;;9.60;99.90;;;;;;5079369;28;20380;-70
2022/09/27 02:09:41;;;;;;;;;;;9.60;99.90;;;;;;5078721;28;20048;-70
2022/09/27 02:12:10;;;;;;;;;;;9.60;99.90;;;;;;5079718;28;19982;-70
2022/09/27 02:14:41;;;;;;;;;;;9.50;99.90;;;;;;5076304;28;19950;-69
2022/09/27 02:17:13;;;;;;;;;;;9.50;99.90;;;;;;5075398;28;20009;-69
2022/09/27 02:19:47;;;;;;;;;;;9.50;99.90;;;;;;5081148;28;19986;-69
2022/09/27 02:22:16;;;;;;;;;;;9.50;99.90;;;;;;5083989;28;19958;-69
2022/09/27 02:24:46;;;;;;;;;;;9.50;99.90;;;;;;5077689;28;20341;-70
2022/09/27 02:27:16;;;;;;;;;;;9.40;99.90;;;;;;5088809;28;20015;-69
2022/09/27 02:29:46;;;;;;;;;;;9.40;99.90;;;;;;5086336;28;19924;-70
2022/09/27 02:32:13;;;;;;;;;;;9.40;99.90;;;;;;5078939;28;19928;-69
2022/09/27 02:34:40;;;;;;;;;;;9.40;99.90;;;;;;5079400;28;20349;-69
2022/09/27 02:37:08;;;;;;;;;;;9.40;99.90;;;;;;5088291;28;19930;-69
2022/09/27 02:39:35;;;;;;;;;;;9.40;99.90;;;;;;5083119;28;20023;-69
2022/09/27 02:42:02;;;;;;;;;;;9.40;99.90;;;;;;5083055;28;19924;-69
2022/09/27 02:44:29;;;;;;;;;;;9.40;99.90;;;;;;5083460;28;20372;-69
2022/09/27 02:47:14;;;;;;;;;;;9.40;99.90;;;;;;5078012;28;20011;-70
2022/09/27 02:49:53;;;;;;;;;;;9.50;99.90;;;;;;5082969;28;19924;-69
2022/09/27 02:52:27;;;;;;;;;;;9.50;99.90;;;;;;5086883;28;19967;-69
2022/09/27 02:55:00;;;;;;;;;;;9.40;99.90;;;;;;5086046;28;19992;-69
2022/09/27 02:57:30;;;;;;;;;;;9.40;99.90;;;;;;5085007;28;19981;-69
2022/09/27 03:00:03;;;;;;;;;;;9.30;99.90;;;;;;5082572;28;20019;-69
2022/09/27 03:02:33;;;;;;;;;;;9.40;99.90;;;;;;5082473;28;19928;-70
2022/09/27 03:05:01;;;;;;;;;;;9.40;99.90;;;;;;5086682;28;20106;-69
2022/09/27 03:07:29;;;;;;;;;;;9.40;99.90;;;;;;5075126;28;19925;-70
2022/09/27 03:09:56;;;;;;;;;;;9.30;99.90;;;;;;5088116;28;19930;-70
2022/09/27 03:12:24;;;;;;;;;;;9.40;99.90;;;;;;5081075;28;19925;-70
2022/09/27 03:14:51;;;;;;;;;;;9.30;99.90;;;;;;5073075;28;19979;-70
2022/09/27 03:17:18;;;;;;;;;;;9.30;99.90;;;;;;5079783;28;20008;-70
2022/09/27 03:19:44;;;;;;;;;;;9.30;99.90;;;;;;5083121;28;19933;-70
2022/09/27 03:22:11;;;;;;;;;;;9.30;99.90;;;;;;5085435;28;20490;-70
2022/09/27 03:24:39;;;;;;;;;;;9.30;99.90;;;;;;5071382;28;20370;-70
2022/09/27 03:27:06;;;;;;;;;;;9.30;99.90;;;;;;5080788;28;19924;-70
2022/09/27 03:29:33;;;;;;;;;;;9.20;99.90;;;;;;5083471;28;19924;-71
2022/09/27 03:31:59;;;;;;;;;;;9.20;99.90;;;;;;5081220;28;19925;-70
2022/09/27 03:34:26;;;;;;;;;;;9.20;99.90;;;;;;5075509;28;20024;-71
2022/09/27 03:36:53;;;;;;;;;;;9.10;99.90;;;;;;5079658;28;20506;-70
2022/09/27 03:39:19;;;;;;;;;;;9.20;99.90;;;;;;5075280;28;19975;-69
2022/09/27 03:41:47;;;;;;;;;;;9.10;99.90;;;;;;5078363;28;20031;-70
2022/09/27 03:44:14;;;;;;;;;;;9.10;99.90;;;;;;5078356;28;20033;-70
2022/09/27 03:46:41;;;;;;;;;;;9.10;99.90;;;;;;5087879;28;19924;-69
2022/09/27 03:49:07;;;;;;;;;;;9.10;99.90;;;;;;5085856;28;20015;-69
2022/09/27 03:51:34;;;;;;;;;;;9.10;99.90;;;;;;5081435;28;19924;-68
2022/09/27 03:54:01;;;;;;;;;;;9.00;99.90;;;;;;5076963;28;20015;-69
2022/09/27 03:56:27;;;;;;;;;;;8.90;99.90;;;;;;5079206;28;19987;-68
2022/09/27 03:58:56;;;;;;;;;;;8.90;99.90;;;;;;5075740;28;20012;-69
2022/09/27 04:01:22;;;;;;;;;;;8.90;99.90;;;;;;5080036;28;20014;-68
2022/09/27 04:03:49;;;;;;;;;;;8.80;99.90;;;;;;5072011;28;20020;-69
2022/09/27 04:06:16;;;;;;;;;;;8.80;99.90;;;;;;5081725;28;19925;-69
2022/09/27 04:08:43;;;;;;;;;;;8.80;99.90;;;;;;5080754;28;19924;-69
2022/09/27 04:11:10;;;;;;;;;;;8.80;99.90;;;;;;5079501;28;19991;-70
2022/09/27 04:13:36;;;;;;;;;;;8.90;99.90;;;;;;5080515;28;19936;-70
2022/09/27 04:16:04;;;;;;;;;;;8.90;99.90;;;;;;5082745;28;20023;-70
2022/09/27 04:18:31;;;;;;;;;;;9.00;99.90;;;;;;5076084;28;20446;-70
2022/09/27 04:20:58;;;;;;;;;;;9.00;99.90;;;;;;5088849;28;20053;-70
2022/09/27 04:23:25;;;;;;;;;;;8.90;99.90;;;;;;5086873;28;19925;-69
2022/09/27 04:25:51;;;;;;;;;;;9.00;99.90;;;;;;5085731;28;19931;-70
2022/09/27 04:28:18;;;;;;;;;;;9.00;99.90;;;;;;5075755;28;20010;-70
2022/09/27 04:30:45;;;;;;;;;;;9.00;99.90;;;;;;5088189;28;20383;-70
2022/09/27 04:33:13;;;;;;;;;;;9.00;99.90;;;;;;5081735;28;19931;-70
2022/09/27 04:38:25;;;;;;;;;;;9.00;99.90;;;;;;5083196;28;20014;-69
2022/09/27 04:40:51;;;;;;;;;;;9.00;99.90;;;;;;5074093;28;20472;-69
2022/09/27 04:43:18;;;;;;;;;;;9.00;99.90;;;;;;5077731;28;19924;-69
2022/09/27 04:45:45;;;;;;;;;;;9.00;99.90;;;;;;5080149;28;20406;-69
2022/09/27 04:48:13;;;;;;;;;;;9.00;99.90;;;;;;5082560;28;19924;-69
2022/09/27 04:50:40;;;;;;;;;;;9.00;99.90;;;;;;5085797;28;20223;-69
2022/09/27 04:53:07;;;;;;;;;;;9.10;99.90;;;;;;5081295;28;20411;-69
2022/09/27 04:55:33;;;;;;;;;;;9.10;99.90;;;;;;5085325;28;19929;-69
2022/09/27 04:58:00;;;;;;;;;;;9.10;99.90;;;;;;5086993;28;20395;-69
2022/09/27 05:00:28;;;;;;;;;;;9.10;99.90;;;;;;5084253;28;20132;-69
2022/09/27 05:02:54;;;;;;;;;;;9.10;99.90;;;;;;5077630;28;19928;-71
2022/09/27 05:05:22;;;;;;;;;;;9.10;99.90;;;;;;5080155;28;19935;-71
2022/09/27 05:07:49;;;;;;;;;;;9.10;99.90;;;;;;5075114;28;19999;-69
2022/09/27 05:10:16;;;;;;;;;;;9.10;99.90;;;;;;5084146;28;19963;-68
2022/09/27 05:12:43;;;;;;;;;;;9.10;99.90;;;;;;5087272;28;19930;-69
2022/09/27 05:15:10;;;;;;;;;;;9.10;99.90;;;;;;5084741;28;19924;-69
2022/09/27 05:17:36;;;;;;;;;;;9.10;99.90;;;;;;5088508;28;20035;-69
2022/09/27 05:20:04;;;;;;;;;;;9.20;99.90;;;;;;5085571;28;19924;-69
2022/09/27 05:22:32;;;;;;;;;;;9.20;99.90;;;;;;5084284;28;19967;-70
2022/09/27 05:24:59;;;;;;;;;;;9.20;99.90;;;;;;5080105;28;19968;-68
2022/09/27 05:27:25;;;;;;;;;;;9.20;99.90;;;;;;5086845;28;20395;-67
2022/09/27 05:29:53;;;;;;;;;;;9.10;99.90;;;;;;5074296;28;20351;-69
2022/09/27 05:32:20;;;;;;;;;;;9.10;99.90;;;;;;5082501;28;19932;-69
2022/09/27 05:34:46;;;;;;;;;;;9.10;99.90;;;;;;5083184;28;19925;-69
2022/09/27 05:37:13;;;;;;;;;;;9.00;99.90;;;;;;5090530;28;20012;-68
2022/09/27 05:39:41;;;;;;;;;;;9.00;99.90;;;;;;5079857;28;20031;-68
2022/09/27 05:42:09;;;;;;;;;;;9.00;99.90;;;;;;5079648;28;20446;-69
2022/09/27 05:44:36;;;;;;;;;;;8.90;99.90;;;;;;5078255;28;19997;-70
2022/09/27 05:47:03;;;;;;;;;;;8.90;99.90;;;;;;5073636;28;19924;-69
2022/09/27 05:49:29;;;;;;;;;;;8.90;99.90;;;;;;5082550;28;19930;-69
2022/09/27 05:51:56;;;;;;;;;;;8.90;99.90;;;;;;5089632;28;19931;-70
2022/09/27 05:54:23;;;;;;;;;;;8.90;99.90;;;;;;5078328;28;19924;-70
2022/09/27 05:56:53;;;;;;;;;;;8.90;99.90;;;;;;5081152;28;20242;-69
2022/09/27 05:59:20;;;;;;;;;;;8.90;99.90;;;;;;5078643;28;19924;-69
2022/09/27 06:01:47;;;;;;;;;;;9.00;99.90;;;;;;5085032;28;20556;-69
2022/09/27 06:04:13;;;;;;;;;;;8.90;99.90;;;;;;5084120;28;19924;-70
2022/09/27 06:06:40;;;;;;;;;;;8.90;99.90;;;;;;5082981;28;19972;-70
2022/09/27 06:09:09;;;;;;;;;;;9.00;99.90;;;;;;5078038;28;20033;-69
2022/09/27 06:11:36;;;;;;;;;;;9.00;99.90;;;;;;5077204;28;19979;-72
2022/09/27 06:14:04;;;;;;;;;;;9.00;99.90;;;;;;5088962;28;19930;-72
2022/09/27 06:16:31;;;;;;;;;;;9.10;99.90;;;;;;5087005;28;19949;-70
2022/09/27 06:18:58;;;;;;;;;;;9.20;99.90;;;;;;5086050;28;19986;-69
2022/09/27 06:21:27;;;;;;;;;;;9.20;99.90;;;;;;5079630;28;20020;-69
2022/09/27 06:23:55;;;;;;;;;;;9.20;99.90;;;;;;5085751;28;19924;-69
2022/09/27 06:26:21;;;;;;;;;;;9.20;99.90;;;;;;5086972;28;19924;-67
2022/09/27 06:28:49;;;;;;;;;;;9.20;99.90;;;;;;5072087;28;19931;-68
2022/09/27 06:31:17;;;;;;;;;;;9.20;99.90;;;;;;5075473;28;19958;-70
2022/09/27 06:33:44;;;;;;;;;;;9.20;99.90;;;;;;5082124;28;19924;-69
2022/09/27 06:36:11;;;;;;;;;;;9.20;99.90;;;;;;5086337;28;19969;-70
2022/09/27 06:38:38;;;;;;;;;;;9.20;99.90;;;;;;5084370;28;19939;-69
2022/09/27 06:41:06;;;;;;;;;;;9.20;99.90;;;;;;5080188;28;20011;-70
2022/09/27 06:43:33;;;;;;;;;;;9.20;99.90;;;;;;5084417;28;20400;-69
2022/09/27 06:46:03;;;;;;;;;;;9.20;99.90;;;;;;5081100;28;20276;-69
2022/09/27 06:48:31;;;;;;;;;;;9.30;99.90;;;;;;5079806;28;19977;-69
2022/09/27 06:50:58;;;;;;;;;;;9.20;99.90;;;;;;5089509;28;19960;-69
2022/09/27 06:53:25;;;;;;;;;;;9.30;99.90;;;;;;5092683;28;20461;-70
2022/09/27 06:55:52;;;;;;;;;;;9.40;99.90;;;;;;5090674;28;19924;-70
2022/09/27 07:01:03;;;;;;;;;;;9.40;99.90;;;;;;5079055;28;19966;-71
2022/09/27 07:03:32;;;;;;;;;;;9.40;99.90;;;;;;5086540;28;19924;-71
2022/09/27 07:05:59;;;;;;;;;;;9.50;99.90;;;;;;5079489;28;19934;-70
2022/09/27 07:08:27;;;;;;;;;;;9.70;99.90;;;;;;5085681;28;19924;-70
2022/09/27 07:10:54;;;;;;;;;;;9.90;99.90;;;;;;5079632;28;21369;-70
2022/09/27 07:13:21;;;;;;;;;;;10.20;99.90;;;;;;5081166;28;20525;-69
2022/09/27 07:15:48;;;;;;;;;;;10.50;99.90;;;;;;5080949;28;19924;-69
2022/09/27 07:18:14;;;;;;;;;;;10.50;99.90;;;;;;5080048;28;19935;-70
2022/09/27 07:20:42;;;;;;;;;;;10.50;99.90;;;;;;5081882;28;20383;-70
2022/09/27 07:23:10;;;;;;;;;;;10.50;99.90;;;;;;5076526;28;19986;-71
2022/09/27 07:25:37;;;;;;;;;;;10.60;99.90;;;;;;5079794;28;19924;-71
2022/09/27 07:28:05;;;;;;;;;;;10.50;99.90;;;;;;5081051;28;20006;-70
2022/09/27 07:30:32;;;;;;;;;;;10.60;99.90;;;;;;5078117;28;19925;-70
2022/09/27 07:32:59;;;;;;;;;;;10.80;99.90;;;;;;5076974;28;19943;-70
2022/09/27 07:35:26;;;;;;;;;;;10.80;99.90;;;;;;5082048;28;19932;-72
2022/09/27 07:37:55;;;;;;;;;;;10.60;99.90;;;;;;5083211;28;19932;-70
2022/09/27 07:40:21;;;;;;;;;;;10.50;99.90;;;;;;5079065;28;19950;-69
2022/09/27 07:42:49;;;;;;;;;;;10.40;99.90;;;;;;5081071;28;19931;-70
2022/09/27 07:45:16;;;;;;;;;;;10.30;99.90;;;;;;5078878;28;19930;-72
2022/09/27 07:47:42;;;;;;;;;;;10.40;99.90;;;;;;5081632;28;20031;-70
2022/09/27 07:50:10;;;;;;;;;;;10.40;99.90;;;;;;5089528;28;19932;-69
2022/09/27 07:52:40;;;;;;;;;;;10.50;99.90;;;;;;5083359;28;21029;-71
2022/09/27 07:55:09;;;;;;;;;;;10.50;99.90;;;;;;5086147;28;19953;-70
2022/09/27 07:57:36;;;;;;;;;;;10.40;99.90;;;;;;5085716;28;20378;-70
2022/09/27 08:00:03;;;;;;;;;;;10.40;99.90;;;;;;5083835;28;19939;-71
2022/09/27 08:02:31;;;;;;;;;;;10.30;99.90;;;;;;5087383;28;20011;-70
2022/09/27 08:04:59;;;;;;;;;;;10.20;99.90;;;;;;5079346;28;20038;-70
2022/09/27 08:07:26;;;;;;;;;;;10.10;99.90;;;;;;5086419;28;20019;-70
2022/09/27 08:09:52;;;;;;;;;;;10.20;99.90;;;;;;5082550;28;20019;-69
2022/09/27 08:12:21;;;;;;;;;;;10.10;99.90;;;;;;5085900;28;19924;-70
2022/09/27 08:14:48;;;;;;;;;;;10.10;99.90;;;;;;5081936;28;19932;-70
2022/09/27 08:17:15;;;;;;;;;;;10.00;99.90;;;;;;5083384;28;20044;-69
2022/09/27 08:19:43;;;;;;;;;;;9.90;99.90;;;;;;5086147;28;19969;-72
2022/09/27 08:22:11;;;;;;;;;;;9.90;99.90;;;;;;5081501;28;20111;-71
2022/09/27 08:24:37;;;;;;;;;;;9.80;99.90;;;;;;5084158;28;19931;-71
2022/09/27 08:27:04;;;;;;;;;;;9.80;99.90;;;;;;5084410;28;19934;-72
2022/09/27 08:29:32;;;;;;;;;;;9.80;99.90;;;;;;5086873;28;20557;-70
2022/09/27 08:31:59;;;;;;;;;;;9.70;99.90;;;;;;5081489;28;20019;-70
2022/09/27 08:34:27;;;;;;;;;;;9.80;99.90;;;;;;5079514;28;20027;-71
2022/09/27 08:36:54;;;;;;;;;;;9.90;99.90;;;;;;5086863;28;20401;-72
2022/09/27 08:39:22;;;;;;;;;;;9.90;99.90;;;;;;5084079;28;19931;-70
2022/09/27 08:41:52;;;;;;;;;;;9.90;99.90;;;;;;5084545;28;20416;-71
2022/09/27 08:44:23;;;;;;;;;;;9.90;99.90;;;;;;5081654;28;19985;-70
2022/09/27 08:46:59;;;;;;;;;;;9.80;99.90;;;;;;5087839;28;19924;-71
2022/09/27 08:49:30;;;;;;;;;;;9.80;99.90;;;;;;5083870;28;19928;-70
2022/09/27 08:51:58;;;;;;;;;;;9.80;99.90;;;;;;5084612;28;19960;-72
2022/09/27 08:54:30;;;;;;;;;;;9.80;99.90;;;;;;5084368;28;20000;-71
2022/09/27 08:57:02;;;;;;;;;;;9.90;99.90;;;;;;5086303;28;19936;-72
2022/09/27 08:59:31;;;;;;;;;;;10.00;99.90;;;;;;5089639;28;19932;-71
2022/09/27 09:02:00;;;;;;;;;;;10.00;99.90;;;;;;5083328;28;20006;-72
2022/09/27 09:04:28;;;;;;;;;;;10.20;99.90;;;;;;5081757;28;20000;-71
2022/09/27 09:07:00;;;;;;;;;;;10.40;99.90;;;;;;5080083;28;19931;-71
2022/09/27 09:09:35;;;;;;;;;;;10.50;99.90;;;;;;5084318;28;20020;-72
2022/09/27 09:15:00;;;;;;;;;;;10.70;99.90;;;;;;5081719;28;19947;-70
2022/09/27 09:17:33;;;;;;;;;;;10.80;99.90;;;;;;5074154;28;19925;-69
2022/09/27 09:20:08;;;;;;;;;;;11.10;99.90;;;;;;5075863;28;20003;-70
2022/09/27 09:22:40;;;;;;;;;;;11.20;99.90;;;;;;5077686;28;19924;-69
2022/09/27 09:25:18;;;;;;;;;;;11.60;99.90;;;;;;5078728;28;19972;-69
2022/09/27 09:27:50;;;;;;;;;;;12.20;99.90;;;;;;5072124;28;20017;-69
2022/09/27 09:30:19;;;;;;;;;;;12.40;99.90;;;;;;5082700;28;20251;-70
2022/09/27 09:32:55;;;;;;;;;;;12.70;99.90;;;;;;5083750;28;20004;-69
2022/09/27 09:35:22;;;;;;;;;;;12.60;99.90;;;;;;5080307;28;20062;-69
2022/09/27 09:37:50;;;;;;;;;;;12.40;99.90;;;;;;5078800;28;19969;-68
2022/09/27 09:40:19;;;;;;;;;;;12.20;99.90;;;;;;5082573;28;19932;-68
2022/09/27 09:42:48;;;;;;;;;;;12.00;99.90;;;;;;5078521;28;20014;-68
2022/09/27 09:45:17;;;;;;;;;;;12.00;99.90;;;;;;5076592;28;19959;-69
2022/09/27 09:47:48;;;;;;;;;;;12.10;99.90;;;;;;5082185;28;19924;-68
2022/09/27 09:50:18;;;;;;;;;;;12.20;99.90;;;;;;5075960;28;19964;-69
2022/09/27 09:52:47;;;;;;;;;;;12.40;99.90;;;;;;5076994;28;19924;-69
2022/09/27 09:55:17;;;;;;;;;;;12.70;99.90;;;;;;5081920;28;19931;-69
2022/09/27 09:57:50;;;;;;;;;;;12.90;99.90;;;;;;5078998;28;20013;-69
2022/09/27 10:00:18;;;;;;;;;;;13.10;99.90;;;;;;5082116;28;20030;-68
2022/09/27 10:02:45;;;;;;;;;;;13.10;99.90;;;;;;5079127;28;19932;-69
2022/09/27 10:05:13;;;;;;;;;;;13.20;99.90;;;;;;5077239;28;20450;-69
2022/09/27 10:07:42;;;;;;;;;;;13.50;99.90;;;;;;5083925;28;20028;-69
2022/09/27 10:10:13;;;;;;;;;;;13.40;99.90;;;;;;5075121;28;19959;-70
2022/09/27 10:12:40;;;;;;;;;;;13.50;99.90;;;;;;5074082;28;20418;-69
2022/09/27 10:15:07;;;;;;;;;;;13.60;99.90;;;;;;5074327;28;19925;-69
2022/09/27 10:17:35;;;;;;;;;;;13.70;99.90;;;;;;5075361;28;20354;-70
2022/09/27 10:20:05;;;;;;;;;;;13.60;99.90;;;;;;5077835;28;19924;-69
2022/09/27 10:22:37;;;;;;;;;;;13.70;99.90;;;;;;5078743;28;19928;-70
2022/09/27 10:25:06;;;;;;;;;;;13.60;99.90;;;;;;5078906;28;19925;-70
2022/09/27 10:27:39;;;;;;;;;;;13.30;99.90;;;;;;5074780;28;19969;-69
2022/09/27 10:30:06;;;;;;;;;;;13.40;99.90;;;;;;5077486;28;19928;-69
2022/09/27 10:32:35;;;;;;;;;;;13.60;99.90;;;;;;5074750;28;20058;-69
2022/09/27 10:35:22;;;;;;;;;;;13.60;99.90;;;;;;5073200;28;19947;-70
2022/09/27 10:37:49;;;;;;;;;;;13.50;99.90;;;;;;5073911;28;21526;-69
2022/09/27 10:40:25;;;;;;;;;;;13.50;99.90;;;;;;5072105;28;19925;-69
2022/09/27 10:42:52;;;;;;;;;;;13.50;99.90;;;;;;5082500;28;19928;-69
2022/09/27 10:45:29;;;;;;;;;;;13.50;99.90;;;;;;5083628;28;19924;-68
2022/09/27 10:47:56;;;;;;;;;;;13.30;99.90;;;;;;5081939;28;19924;-69
2022/09/27 10:50:29;;;;;;;;;;;12.90;99.90;;;;;;5079311;28;19924;-69
2022/09/27 10:53:01;;;;;;;;;;;12.80;99.90;;;;;;5075389;28;19991;-70
2022/09/27 10:55:32;;;;;;;;;;;12.40;99.90;;;;;;5081653;28;20359;-68
2022/09/27 10:57:59;;;;;;;;;;;12.30;99.90;;;;;;5088169;28;19975;-68
2022/09/27 11:00:27;;;;;;;;;;;12.20;99.90;;;;;;5090642;28;20018;-69
2022/09/27 11:02:55;;;;;;;;;;;12.30;99.90;;;;;;5093680;28;19982;-68
2022/09/27 11:05:32;;;;;;;;;;;12.30;99.90;;;;;;5090477;28;19924;-68
2022/09/27 11:08:01;;;;;;;;;;;12.30;99.90;;;;;;5074307;28;19924;-68
2022/09/27 11:10:31;;;;;;;;;;;12.10;99.90;;;;;;5075854;28;19939;-69
2022/09/27 11:13:11;;;;;;;;;;;12.20;99.90;;;;;;5086746;28;20031;-69
2022/09/27 11:15:44;;;;;;;;;;;12.30;99.90;;;;;;5071687;28;19925;-69
2022/09/27 11:18:17;;;;;;;;;;;12.60;99.90;;;;;;5075437;28;19924;-69
2022/09/27 11:20:46;;;;;;;;;;;12.90;99.90;;;;;;5079990;28;19996;-68
2022/09/27 11:23:22;;;;;;;;;;;12.90;99.90;;;;;;5088019;28;20371;-69
2022/09/27 11:25:57;;;;;;;;;;;12.60;99.90;;;;;;5086230;28;19928;-69
2022/09/27 11:28:30;;;;;;;;;;;12.20;99.90;;;;;;5088106;28;20435;-69
2022/09/27 11:31:02;;;;;;;;;;;12.10;99.90;;;;;;5088851;28;19949;-69
2022/09/27 11:33:40;;;;;;;;;;;12.00;99.90;;;;;;5085095;28;19924;-68
2022/09/27 11:36:12;;;;;;;;;;;12.10;99.90;;;;;;5083302;28;19975;-69
2022/09/27 11:38:48;;;;;;;;;;;12.20;99.90;;;;;;5087733;28;19928;-69
2022/09/27 11:41:24;;;;;;;;;;;12.50;99.90;;;;;;5087755;28;19970;-67
2022/09/27 11:44:01;;;;;;;;;;;12.80;99.90;;;;;;5079071;28;19978;-69
2022/09/27 11:46:29;;;;;;;;;;;13.00;99.90;;;;;;5077773;28;19931;-69
2022/09/27 11:49:06;;;;;;;;;;;13.20;99.90;;;;;;5089194;28;20166;-69
2022/09/27 11:51:40;;;;;;;;;;;13.40;99.90;;;;;;5075047;28;19970;-69
2022/09/27 11:54:14;;;;;;;;;;;13.20;99.90;;;;;;5078710;28;19924;-68
2022/09/27 11:56:48;;;;;;;;;;;13.10;99.90;;;;;;5072926;28;20011;-70
2022/09/27 11:59:39;;;;;;;;;;;13.10;99.90;;;;;;5074400;28;20005;-69
2022/09/27 12:02:14;;;;;;;;;;;13.20;99.90;;;;;;5081300;28;20426;-68
2022/09/27 12:04:50;;;;;;;;;;;13.10;99.90;;;;;;5070901;28;19925;-69
2022/09/27 12:07:19;;;;;;;;;;;12.80;99.90;;;;;;5074560;28;19947;-69
2022/09/27 12:09:48;;;;;;;;;;;12.70;99.90;;;;;;5082586;28;19924;-69
2022/09/27 12:12:18;;;;;;;;;;;12.50;99.90;;;;;;5078464;28;20035;-68
2022/09/27 12:14:47;;;;;;;;;;;12.40;99.90;;;;;;5075815;28;19931;-69
2022/09/27 12:17:17;;;;;;;;;;;12.30;99.90;;;;;;5073440;28;19931;-68
2022/09/27 12:19:47;;;;;;;;;;;12.20;99.90;;;;;;5072654;28;19963;-69
2022/09/27 12:22:18;;;;;;;;;;;12.30;99.90;;;;;;5080803;28;19946;-69
2022/09/27 12:24:46;;;;;;;;;;;12.40;99.90;;;;;;5075299;28;19924;-68
2022/09/27 12:27:15;;;;;;;;;;;12.70;99.90;;;;;;5083711;28;19925;-68
2022/09/27 12:29:45;;;;;;;;;;;13.10;99.90;;;;;;5078999;28;20303;-70
2022/09/27 12:32:15;;;;;;;;;;;13.10;99.90;;;;;;5068587;28;19924;-69
2022/09/27 12:34:45;;;;;;;;;;;13.10;99.90;;;;;;5073144;28;19931;-69
2022/09/27 12:37:13;;;;;;;;;;;12.90;99.90;;;;;;5072427;28;19931;-70
2022/09/27 12:39:45;;;;;;;;;;;13.00;99.90;;;;;;5074070;28;19978;-68
2022/09/27 12:42:16;;;;;;;;;;;13.30;99.90;;;;;;5082560;28;19936;-68
2022/09/27 12:44:44;;;;;;;;;;;13.30;99.90;;;;;;5079195;28;20400;-69
2022/09/27 12:47:15;;;;;;;;;;;13.10;99.90;;;;;;5074942;28;19936;-69
2022/09/27 12:49:48;;;;;;;;;;;13.10;99.90;;;;;;5075665;28;20383;-68
2022/09/27 12:52:21;;;;;;;;;;;13.10;99.90;;;;;;5074363;28;19975;-69
2022/09/27 12:55:22;;;;;;;;;;;13.00;99.90;;;;;;5084187;28;19958;-69
2022/09/27 12:57:57;;;;;;;;;;;12.90;99.90;;;;;;5011140;28;19925;-69
2022/09/27 13:00:30;;;;;;;;;;;12.70;99.90;;;;;;5009429;28;21422;-69
2022/09/27 13:03:15;;;;;;;;;;;13.00;99.90;;;;;;5045561;28;20837;-69
2022/09/27 13:05:59;;;;;;;;;;;13.50;99.90;;;;;;5076433;28;20004;-67
2022/09/27 13:08:34;;;;;;;;;;;13.90;99.90;;;;;;5073075;28;19972;-69
2022/09/27 13:11:08;;;;;;;;;;;13.90;99.90;;;;;;5079760;28;19928;-68
2022/09/27 13:13:36;;;;;;;;;;;13.70;99.90;;;;;;5086295;28;19971;-68
2022/09/27 13:16:05;;;;;;;;;;;13.70;99.90;;;;;;5076761;28;19924;-69
2022/09/27 13:18:50;;;;;;;;;;;13.70;99.90;;;;;;5076298;28;20268;-68
2022/09/27 13:21:31;;;;;;;;;;;13.60;99.90;;;;;;5083096;28;19952;-68
2022/09/27 13:23:59;;;;;;;;;;;13.50;99.90;;;;;;5083533;28;19978;-69
2022/09/27 13:26:43;;;;;;;;;;;13.60;99.90;;;;;;5088885;28;20069;-68
2022/09/27 13:29:21;;;;;;;;;;;13.60;99.90;;;;;;5087164;28;20402;-68
2022/09/27 13:32:17;;;;;;;;;;;13.60;99.90;;;;;;5073787;28;19935;-69
2022/09/27 13:34:47;;;;;;;;;;;13.60;99.90;;;;;;5027064;28;20328;-70
2022/09/27 13:37:35;;;;;;;;;;;13.40;99.90;;;;;;5075885;28;20285;-69
2022/09/27 13:40:22;;;;;;;;;;;13.20;99.90;;;;;;5073703;28;20031;-70
2022/09/27 13:42:54;;;;;;;;;;;13.10;99.90;;;;;;5077299;28;19924;-69
2022/09/27 13:45:28;;;;;;;;;;;13.10;99.90;;;;;;5078419;28;20023;-68
2022/09/27 13:47:56;;;;;;;;;;;13.40;99.90;;;;;;5079218;28;19971;-70
2022/09/27 13:50:26;;;;;;;;;;;13.80;99.90;;;;;;5079773;28;20602;-70
2022/09/27 13:52:58;;;;;;;;;;;14.00;99.90;;;;;;5085119;28;19928;-69
2022/09/27 13:55:46;;;;;;;;;;;13.90;99.90;;;;;;5080715;28;20268;-69
2022/09/27 13:58:15;;;;;;;;;;;13.70;99.90;;;;;;5074511;28;19931;-71
2022/09/27 14:00:44;;;;;;;;;;;13.60;99.90;;;;;;5089819;28;19924;-68
2022/09/27 14:03:15;;;;;;;;;;;13.60;99.90;;;;;;5083142;28;20386;-69
2022/09/27 14:05:47;;;;;;;;;;;13.60;99.90;;;;;;5091426;28;19928;-69
2022/09/27 14:08:20;;;;;;;;;;;13.50;99.90;;;;;;5074957;28;19971;-68
2022/09/27 14:10:47;;;;;;;;;;;13.60;99.90;;;;;;5087324;28;20376;-68
2022/09/27 14:13:18;;;;;;;;;;;13.80;99.90;;;;;;5083340;28;19931;-69
2022/09/27 14:15:46;;;;;;;;;;;14.00;99.90;;;;;;5084228;28;20286;-70
2022/09/27 14:18:13;;;;;;;;;;;14.20;99.90;;;;;;5082283;28;20023;-69
2022/09/27 14:20:41;;;;;;;;;;;14.20;99.90;;;;;;5084884;28;20216;-69
2022/09/27 14:23:16;;;;;;;;;;;14.30;99.90;;;;;;5090193;28;19924;-69
2022/09/27 14:25:44;;;;;;;;;;;14.30;99.90;;;;;;5080437;28;20354;-67
2022/09/27 14:28:19;;;;;;;;;;;14.20;99.90;;;;;;5078638;28;19925;-68
2022/09/27 14:30:46;;;;;;;;;;;14.40;99.90;;;;;;5076112;28;19928;-68
2022/09/27 14:33:27;;;;;;;;;;;14.60;99.90;;;;;;5069155;28;19924;-67
2022/09/27 14:38:40;;;;;;;;;;;14.40;99.90;;;;;;5079761;28;19947;-69
2022/09/27 14:41:08;;;;;;;;;;;14.10;99.90;;;;;;5081119;28;19928;-68
2022/09/27 14:43:37;;;;;;;;;;;14.00;99.90;;;;;;5083167;28;19979;-68
2022/09/27 14:46:05;;;;;;;;;;;13.90;99.90;;;;;;5080894;28;19928;-68
2022/09/27 14:48:33;;;;;;;;;;;13.60;99.90;;;;;;5080830;28;19924;-71
2022/09/27 14:51:02;;;;;;;;;;;13.50;99.90;;;;;;5081102;28;19939;-70